AVAO2: Salt Fork Arkansas River Nr Alva, OK

Data processed at Sun Apr 30 2017 22:32


All information presented herein is the property of the government of the United States of America and may be revised or deleted at any time without prior notice.
Dissemination of this information without the expressed written consent of the Public Affairs Office, Tulsa District U.S. Army Corps of Engineers is strictly prohibited.
These data are gathered electronically and, as presented, have not undergone any form of quality control. These data are not guaranteed to be valid or correct.
Go to home page.
Go to station list.
Go to station map.

Downstream station:


Previous Day
Next Day
Current Day
    
SHEF ID:       AVAO2     Salt Fork Arkansas River nr Alva
STATION TYPE:  

               PRECIP     STAGE  RIV-FLOW  BAT-LOAD
                   in        ft       cfs      volt
              Ccp-Rev   Ccp-Rev   Ccp-Rev   Ccp-Rev
(US/Central)
04/30 00:00      0.10      4.28       198     12.33
04/30 01:00      0.17      4.56       260     12.33
04/30 02:00      0.09      4.78       315     12.33
04/30 03:00      0.02      4.91       351     12.33
04/30 04:00      0.05      5.16       421     12.33
04/30 05:00      0.03      5.32       467     12.33
04/30 06:00      0.01      5.35       477     12.33
04/30 07:00      0.00      5.30       461     12.33
04/30 08:00      0.00      5.26       449     12.33
04/30 09:00      0.02      5.19       429     12.33
04/30 10:00      0.00      5.16       421     12.41
04/30 11:00      0.01      5.13       412     12.41
04/30 12:00      0.00      5.19       429     12.49
04/30 13:00      0.00      5.32       467     12.65
04/30 14:00      0.00      5.47       512     12.73
04/30 15:00      0.03      5.62       560     12.73
04/30 16:00      0.01      5.76       606     12.81
04/30 17:00      0.00      5.89       648     12.81
04/30 18:00      0.00      5.97       676     12.81
04/30 19:00      0.00      6.01       690     12.65
04/30 20:00      0.00      6.01       690     12.49
04/30 21:00      0.00      5.98       679     12.41
04/30 22:00      0.00      5.99       683     12.33
04/30 23:00      ----      ----      ----      ----